Time;durP1;ratioP1;P1;durP2;ratioP2;P2;SDS_P1;SDS_P2;PMS_P1;PMS_P2;Temp;Humidity;BMP_temperature;BMP_pressure;BME280_temperature;BME280_humidity;BME280_pressure;Samples;Min_cycle;Max_cycle;Signal;HPM_P1;HPM_P2
2021/06/30 00:00:10;;;;;;;21.98;9.95;;;14.80;97.10;;;;;;4917051;29;20020;-87
2021/06/30 00:02:36;;;;;;;26.23;10.40;;;14.80;97.10;;;;;;4917400;29;20440;-87
2021/06/30 00:05:03;;;;;;;22.02;10.15;;;14.80;97.10;;;;;;4916955;29;20029;-87
2021/06/30 00:07:29;;;;;;;23.35;10.05;;;14.80;97.20;;;;;;4907554;29;20467;-88
2021/06/30 00:09:54;;;;;;;23.92;10.48;;;14.90;97.20;;;;;;4917721;29;20107;-89
2021/06/30 00:12:20;;;;;;;18.90;9.02;;;14.90;97.50;;;;;;4922983;29;20123;-88
2021/06/30 00:14:46;;;;;;;20.80;9.60;;;14.90;97.20;;;;;;4903329;29;20060;-88
2021/06/30 00:17:11;;;;;;;19.35;9.00;;;14.90;97.20;;;;;;4884836;29;20032;-88
2021/06/30 00:19:38;;;;;;;19.17;8.73;;;15.00;97.30;;;;;;4915606;29;20039;-88
2021/06/30 00:22:04;;;;;;;20.73;9.05;;;14.90;97.30;;;;;;4916903;29;20044;-87
2021/06/30 00:24:29;;;;;;;23.55;9.25;;;15.00;97.30;;;;;;4899500;29;20487;-88
2021/06/30 00:26:55;;;;;;;19.02;9.05;;;15.00;97.30;;;;;;4905579;29;20028;-88
2021/06/30 00:29:20;;;;;;;18.42;8.48;;;15.00;97.30;;;;;;4898062;29;20032;-88
2021/06/30 00:31:46;;;;;;;17.98;8.18;;;15.10;97.30;;;;;;4930376;29;20040;-88
2021/06/30 00:34:12;;;;;;;17.08;8.30;;;15.00;97.20;;;;;;4879691;29;20029;-87
2021/06/30 00:36:44;;;;;;;18.02;7.82;;;15.10;97.20;;;;;;4915987;29;20039;-88
2021/06/30 00:39:11;;;;;;;19.25;8.32;;;15.10;97.30;;;;;;4929319;29;20083;-87
2021/06/30 00:41:37;;;;;;;15.20;7.53;;;15.20;97.30;;;;;;4914762;29;20012;-87
2021/06/30 00:44:02;;;;;;;18.55;7.70;;;15.10;97.30;;;;;;4929071;29;20443;-87
2021/06/30 00:46:33;;;;;;;18.95;8.30;;;15.10;97.20;;;;;;4914973;29;20039;-87
2021/06/30 00:48:59;;;;;;;17.00;8.35;;;15.10;97.20;;;;;;4916114;29;20104;-88
2021/06/30 00:51:27;;;;;;;19.48;8.40;;;15.10;97.30;;;;;;4884204;29;20472;-88
2021/06/30 00:53:53;;;;;;;18.83;9.15;;;15.20;97.30;;;;;;4884872;29;20472;-88
2021/06/30 00:56:23;;;;;;;19.63;8.77;;;15.20;97.30;;;;;;4899233;29;20040;-88
2021/06/30 00:58:51;;;;;;;21.08;9.18;;;15.20;97.30;;;;;;4915901;29;20499;-89
2021/06/30 01:01:17;;;;;;;19.35;8.98;;;15.20;97.30;;;;;;4911739;29;20479;-88
2021/06/30 01:03:43;;;;;;;21.95;8.90;;;15.20;97.30;;;;;;4915550;29;20031;-88
2021/06/30 01:06:09;;;;;;;15.95;7.75;;;15.10;97.20;;;;;;4899264;29;20032;-89
2021/06/30 01:08:34;;;;;;;20.33;8.90;;;15.20;97.20;;;;;;4915844;29;20036;-89
2021/06/30 01:11:00;;;;;;;23.45;9.55;;;15.20;97.20;;;;;;4915835;29;20036;-89
2021/06/30 01:13:26;;;;;;;19.85;9.63;;;15.20;97.20;;;;;;4915945;29;20036;-89
2021/06/30 01:15:55;;;;;;;21.05;9.18;;;15.20;97.20;;;;;;4915580;29;20048;-89
2021/06/30 01:18:28;;;;;;;18.52;9.32;;;15.20;97.30;;;;;;4899136;29;20024;-88
2021/06/30 01:20:54;;;;;;;21.17;9.48;;;15.20;97.20;;;;;;4914820;29;20024;-89
2021/06/30 01:23:20;;;;;;;22.48;9.77;;;15.20;97.20;;;;;;4915254;29;20100;-88
2021/06/30 01:25:47;;;;;;;18.55;9.65;;;15.10;97.20;;;;;;4905476;29;20028;-87
2021/06/30 01:28:14;;;;;;;19.55;9.75;;;15.20;97.30;;;;;;4904010;29;20028;-87
2021/06/30 01:30:41;;;;;;;21.42;9.95;;;15.20;97.30;;;;;;4898737;29;20583;-87
2021/06/30 01:33:07;;;;;;;21.60;10.13;;;15.20;97.30;;;;;;4915739;29;20040;-87
2021/06/30 01:35:34;;;;;;;25.30;9.90;;;15.20;97.30;;;;;;4915652;29;20095;-86
2021/06/30 01:38:01;;;;;;;22.88;10.35;;;15.20;97.30;;;;;;4916433;29;20024;-88
2021/06/30 01:40:27;;;;;;;21.95;10.38;;;15.20;97.30;;;;;;4888090;29;20025;-89
2021/06/30 01:42:55;;;;;;;28.73;11.10;;;15.20;97.30;;;;;;4919108;29;21157;-86
2021/06/30 01:45:22;;;;;;;24.38;11.13;;;15.20;97.20;;;;;;4919226;29;20024;-87
2021/06/30 01:47:47;;;;;;;23.33;10.50;;;15.20;97.30;;;;;;4901470;29;20032;-87
2021/06/30 01:50:14;;;;;;;22.35;10.20;;;15.20;97.30;;;;;;4902932;29;20028;-87
2021/06/30 01:52:42;;;;;;;21.33;10.48;;;15.30;97.30;;;;;;4902362;29;20465;-87
2021/06/30 01:55:08;;;;;;;23.73;10.77;;;15.20;97.30;;;;;;4902740;29;20020;-87
2021/06/30 01:57:45;;;;;;;23.23;10.43;;;15.30;97.30;;;;;;4918842;29;20028;-87
2021/06/30 02:00:13;;;;;;;24.17;10.45;;;15.20;97.20;;;;;;4901779;29;20031;-88
2021/06/30 02:02:39;;;;;;;24.08;9.35;;;15.30;97.30;;;;;;4932448;29;20032;-89
2021/06/30 02:05:16;;;;;;;21.13;9.63;;;15.30;97.30;;;;;;4903534;29;20028;-89
2021/06/30 02:07:44;;;;;;;22.13;8.93;;;15.30;97.30;;;;;;4919195;29;20056;-88
2021/06/30 02:10:10;;;;;;;22.05;9.95;;;15.30;97.30;;;;;;4918493;29;20599;-89
2021/06/30 02:12:37;;;;;;;24.83;9.95;;;15.20;97.20;;;;;;4887961;29;20039;-89
2021/06/30 02:15:06;;;;;;;21.17;9.18;;;15.20;97.20;;;;;;4902335;29;20024;-88
2021/06/30 02:17:32;;;;;;;19.13;8.80;;;15.20;97.20;;;;;;4918373;29;20031;-88
2021/06/30 02:19:58;;;;;;;20.48;8.13;;;15.20;97.20;;;;;;4917825;29;20017;-89
2021/06/30 02:22:25;;;;;;;19.02;7.82;;;15.20;97.20;;;;;;4901432;29;20059;-88
2021/06/30 02:24:50;;;;;;;18.10;7.25;;;15.20;97.20;;;;;;4902628;29;20031;-88
2021/06/30 02:27:16;;;;;;;20.23;7.60;;;15.20;97.30;;;;;;4922696;29;20378;-88
2021/06/30 02:29:42;;;;;;;17.52;7.38;;;15.20;97.30;;;;;;4903041;29;20495;-89
2021/06/30 02:32:08;;;;;;;19.05;7.78;;;15.20;97.30;;;;;;4901259;29;20035;-88
2021/06/30 02:34:33;;;;;;;18.30;7.28;;;15.20;97.30;;;;;;4887457;29;20036;-88
2021/06/30 02:36:59;;;;;;;15.45;7.28;;;15.20;97.30;;;;;;4918449;29;20036;-88
2021/06/30 02:39:25;;;;;;;16.60;7.28;;;15.20;97.40;;;;;;4897184;29;20035;-89
2021/06/30 02:41:50;;;;;;;18.95;7.82;;;15.20;97.30;;;;;;4901797;29;20150;-89
2021/06/30 02:44:16;;;;;;;14.32;7.15;;;15.20;97.30;;;;;;4932848;29;20107;-88
2021/06/30 02:46:42;;;;;;;13.18;6.32;;;15.20;97.30;;;;;;4917580;29;20494;-89
2021/06/30 02:49:07;;;;;;;15.18;6.22;;;15.20;97.40;;;;;;4904743;29;20043;-89
2021/06/30 02:51:33;;;;;;;15.98;6.50;;;15.20;97.30;;;;;;4891200;29;20127;-89
2021/06/30 02:53:58;;;;;;;14.55;6.45;;;15.30;97.30;;;;;;4933014;29;20020;-89
2021/06/30 02:56:25;;;;;;;14.82;6.93;;;15.30;97.30;;;;;;4901865;29;20380;-88
2021/06/30 02:58:50;;;;;;;15.80;6.97;;;15.20;97.30;;;;;;4901283;29;20028;-89
2021/06/30 03:01:17;;;;;;;15.15;7.13;;;15.20;97.40;;;;;;4918159;29;20532;-89
2021/06/30 03:03:43;;;;;;;16.42;6.75;;;15.30;97.40;;;;;;4918370;29;20060;-89
2021/06/30 03:06:09;;;;;;;13.98;6.57;;;15.20;97.30;;;;;;4917914;29;20024;-89
2021/06/30 03:08:35;;;;;;;14.70;6.45;;;15.20;97.30;;;;;;4901203;29;20024;-88
2021/06/30 03:11:01;;;;;;;16.02;6.47;;;15.20;97.30;;;;;;4903920;29;20028;-87
2021/06/30 03:13:27;;;;;;;15.25;7.05;;;15.20;97.30;;;;;;4921474;29;20036;-88
2021/06/30 03:15:53;;;;;;;16.92;6.45;;;15.20;97.60;;;;;;4897909;29;20024;-88
2021/06/30 03:18:19;;;;;;;12.73;5.80;;;15.30;97.40;;;;;;4930116;29;20063;-88
2021/06/30 03:20:46;;;;;;;14.85;6.10;;;15.20;97.40;;;;;;4924476;29;20059;-88
2021/06/30 03:23:12;;;;;;;13.63;6.40;;;15.30;97.40;;;;;;4918083;29;20055;-87
2021/06/30 03:25:37;;;;;;;14.73;6.22;;;15.30;97.40;;;;;;4901231;29;20039;-87
2021/06/30 03:28:04;;;;;;;14.13;6.35;;;15.30;97.50;;;;;;4892249;29;20028;-88
2021/06/30 03:30:34;;;;;;;15.55;6.55;;;15.30;97.50;;;;;;4901003;29;20024;-88
2021/06/30 03:33:00;;;;;;;14.85;7.55;;;15.30;97.50;;;;;;4900641;29;20414;-88
2021/06/30 03:35:25;;;;;;;14.82;7.10;;;15.30;97.40;;;;;;4901017;29;20032;-88
2021/06/30 03:37:51;;;;;;;17.40;7.63;;;15.30;97.50;;;;;;4932225;29;20087;-88
2021/06/30 03:40:17;;;;;;;15.25;7.30;;;15.40;97.50;;;;;;4917571;29;20071;-87
2021/06/30 03:42:42;;;;;;;14.63;7.70;;;15.40;97.50;;;;;;4878449;29;20028;-87
2021/06/30 03:45:08;;;;;;;15.77;6.85;;;15.40;97.50;;;;;;4916913;29;20028;-87
2021/06/30 03:47:34;;;;;;;16.60;7.53;;;15.50;97.60;;;;;;4889822;29;20025;-87
2021/06/30 03:50:00;;;;;;;18.55;8.88;;;15.50;97.60;;;;;;4922202;29;20023;-87
2021/06/30 03:52:27;;;;;;;18.67;8.98;;;15.50;97.50;;;;;;4900935;29;20147;-87
2021/06/30 03:54:55;;;;;;;20.27;11.27;;;15.50;97.50;;;;;;4917009;29;20119;-88
2021/06/30 03:57:21;;;;;;;18.92;9.93;;;15.50;97.60;;;;;;4917585;29;20024;-89
2021/06/30 03:59:48;;;;;;;18.52;8.65;;;15.60;97.70;;;;;;4902850;29;20027;-88
2021/06/30 04:02:24;;;;;;;18.63;8.07;;;15.70;97.80;;;;;;4899887;29;20047;-88
2021/06/30 04:04:49;;;;;;;17.80;7.78;;;15.80;97.80;;;;;;4909121;29;20080;-89
2021/06/30 04:07:15;;;;;;;22.52;10.02;;;15.90;97.80;;;;;;4899916;29;20421;-88
2021/06/30 04:09:41;;;;;;;19.20;8.65;;;15.90;97.80;;;;;;4907563;29;20041;-88
2021/06/30 04:12:06;;;;;;;18.38;9.27;;;16.00;97.80;;;;;;4923959;29;20500;-88
2021/06/30 04:14:36;;;;;;;21.92;9.27;;;16.10;97.80;;;;;;4898299;29;20055;-89
2021/06/30 04:17:05;;;;;;;18.30;8.88;;;16.10;97.60;;;;;;4899267;29;20088;-88
2021/06/30 04:19:34;;;;;;;17.23;7.40;;;16.10;97.60;;;;;;4916459;29;20079;-88
2021/06/30 04:22:00;;;;;;;15.27;7.70;;;16.10;97.60;;;;;;4898949;29;20519;-89
2021/06/30 04:24:26;;;;;;;17.48;6.88;;;16.10;97.60;;;;;;4931365;29;20020;-89
2021/06/30 04:26:51;;;;;;;13.40;6.60;;;16.10;97.60;;;;;;4931907;29;20187;-89
2021/06/30 04:29:17;;;;;;;13.77;5.90;;;16.10;97.60;;;;;;4915995;29;20024;-89
2021/06/30 04:31:43;;;;;;;14.40;5.93;;;16.00;97.30;;;;;;4899882;29;20028;-89
2021/06/30 04:34:08;;;;;;;13.20;6.03;;;15.90;96.90;;;;;;4919902;29;20072;-91
2021/06/30 04:36:40;;;;;;;15.95;5.90;;;15.70;97.00;;;;;;4899630;29;20118;-91
2021/06/30 04:43:47;;;;;;;13.10;5.65;;;15.70;97.10;;;;;;4857283;29;20112;-91
2021/06/30 04:50:23;;;;;;;15.55;6.32;;;15.60;97.30;;;;;;4851725;29;20057;-90
2021/06/30 04:53:13;;;;;;;14.20;5.25;;;15.60;97.30;;;;;;4873017;29;20047;-91
2021/06/30 04:56:29;;;;;;;13.80;4.93;;;15.70;97.30;;;;;;4883116;29;20115;-90
2021/06/30 04:58:58;;;;;;;10.27;4.72;;;15.80;97.30;;;;;;4934727;29;20035;-87
2021/06/30 05:01:26;;;;;;;13.05;4.88;;;15.90;97.40;;;;;;4899145;29;20067;-87
2021/06/30 05:03:52;;;;;;;11.88;4.88;;;15.80;97.30;;;;;;4899438;29;20480;-86
2021/06/30 05:06:21;;;;;;;13.80;4.47;;;15.90;97.30;;;;;;4900931;29;20031;-86
2021/06/30 05:08:46;;;;;;;10.40;4.22;;;15.90;97.30;;;;;;4899202;29;20036;-87
2021/06/30 05:11:13;;;;;;;10.63;4.68;;;15.90;97.30;;;;;;4915931;29;20071;-87
2021/06/30 05:13:39;;;;;;;11.70;4.40;;;16.00;97.40;;;;;;4902004;29;20050;-86
2021/06/30 05:16:07;;;;;;;12.43;5.00;;;16.10;97.80;;;;;;4919138;29;20115;-88
2021/06/30 05:18:37;;;;;;;11.40;4.82;;;16.10;97.60;;;;;;4919441;29;20032;-87
2021/06/30 05:21:03;;;;;;;13.27;4.50;;;16.20;97.60;;;;;;4919637;29;20035;-87
2021/06/30 05:23:33;;;;;;;10.45;4.20;;;16.40;97.70;;;;;;4920253;29;20373;-87
2021/06/30 05:25:59;;;;;;;10.02;4.28;;;16.50;97.80;;;;;;4934557;29;20067;-85
2021/06/30 05:28:25;;;;;;;12.35;5.00;;;16.60;97.70;;;;;;4914070;29;20372;-86
2021/06/30 05:30:50;;;;;;;12.00;4.85;;;16.70;97.60;;;;;;4921807;29;20370;-87
2021/06/30 05:33:16;;;;;;;11.18;4.55;;;16.80;97.60;;;;;;4919666;29;20042;-87
2021/06/30 05:35:41;;;;;;;11.35;4.45;;;16.80;97.60;;;;;;4919182;29;20039;-86
2021/06/30 05:38:07;;;;;;;10.70;5.00;;;16.90;97.60;;;;;;4902666;29;20028;-87
2021/06/30 05:40:33;;;;;;;11.57;5.07;;;16.90;97.50;;;;;;4919045;29;20103;-87
2021/06/30 05:42:58;;;;;;;10.43;4.60;;;16.90;97.60;;;;;;4918988;29;20373;-86
2021/06/30 06:22:26;;;;;;;6.50;2.80;;;17.70;97.60;;;;;;4912430;29;20111;-82
2021/06/30 06:24:52;;;;;;;6.85;3.00;;;18.00;97.90;;;;;;4891375;29;20032;-82
2021/06/30 06:27:18;;;;;;;6.93;2.33;;;18.00;98.00;;;;;;4902154;29;20438;-84
2021/06/30 06:29:48;;;;;;;5.45;2.28;;;18.00;97.30;;;;;;4923887;29;20040;-84
2021/06/30 06:32:14;;;;;;;4.68;2.10;;;18.00;97.20;;;;;;4901900;29;20483;-84
2021/06/30 06:34:39;;;;;;;6.18;2.67;;;17.90;97.30;;;;;;4901714;29;20087;-83
2021/06/30 06:37:05;;;;;;;5.53;2.15;;;17.90;97.20;;;;;;4901672;29;20028;-83
2021/06/30 06:39:32;;;;;;;5.38;1.80;;;17.90;97.50;;;;;;4901773;29;20079;-83
2021/06/30 06:41:57;;;;;;;5.78;2.33;;;17.90;97.60;;;;;;4888429;29;20122;-83
2021/06/30 06:44:23;;;;;;;6.25;2.50;;;18.00;97.60;;;;;;4901837;29;20107;-83
2021/06/30 06:46:49;;;;;;;4.22;1.98;;;18.10;97.80;;;;;;4902689;29;20027;-84
2021/06/30 06:49:14;;;;;;;5.63;2.50;;;18.10;97.50;;;;;;4917563;29;20083;-83
2021/06/30 06:51:40;;;;;;;3.67;1.83;;;18.10;97.20;;;;;;4901883;29;20357;-83
2021/06/30 06:54:07;;;;;;;5.88;2.38;;;18.00;97.40;;;;;;4901656;29;20380;-83
2021/06/30 06:56:33;;;;;;;3.83;2.00;;;18.10;97.50;;;;;;4889727;29;20035;-84
2021/06/30 06:58:59;;;;;;;3.20;1.55;;;18.20;97.60;;;;;;4902037;29;20028;-83
2021/06/30 07:01:25;;;;;;;4.63;1.88;;;18.20;98.00;;;;;;4901226;29;20034;-85
2021/06/30 07:03:52;;;;;;;4.45;2.10;;;18.30;97.60;;;;;;4901644;29;20433;-84
2021/06/30 07:06:18;;;;;;;3.10;1.80;;;18.20;97.50;;;;;;4901305;29;20056;-84
2021/06/30 07:08:47;;;;;;;3.17;2.00;;;18.30;97.50;;;;;;4901584;29;20476;-84
2021/06/30 07:11:13;;;;;;;2.83;1.70;;;18.40;97.60;;;;;;4917913;29;20028;-84
2021/06/30 07:13:39;;;;;;;2.28;1.40;;;18.50;97.80;;;;;;4918105;29;20043;-84
2021/06/30 07:16:06;;;;;;;2.70;1.38;;;18.50;97.80;;;;;;4917438;29;20498;-83
2021/06/30 07:18:33;;;;;;;3.17;1.70;;;18.60;97.70;;;;;;4917541;29;20017;-83
2021/06/30 07:21:01;;;;;;;3.72;1.70;;;18.60;97.90;;;;;;4917894;29;20047;-85
2021/06/30 07:23:27;;;;;;;2.35;1.70;;;18.70;97.70;;;;;;4921073;29;20498;-84
2021/06/30 07:25:53;;;;;;;2.80;1.80;;;18.60;97.30;;;;;;4922183;29;20538;-84
2021/06/30 07:28:19;;;;;;;1.63;1.52;;;18.50;97.30;;;;;;4919883;29;20028;-84
2021/06/30 07:30:45;;;;;;;2.17;1.65;;;18.40;96.90;;;;;;4917024;29;20032;-84
2021/06/30 07:33:18;;;;;;;3.38;1.90;;;18.20;96.90;;;;;;4922707;29;20042;-83
2021/06/30 07:35:44;;;;;;;3.17;2.00;;;18.10;97.30;;;;;;4932468;29;20411;-83
2021/06/30 07:38:12;;;;;;;2.85;1.50;;;18.10;97.60;;;;;;4900776;29;20024;-83
2021/06/30 07:40:37;;;;;;;3.05;1.90;;;18.30;98.30;;;;;;4900946;29;20020;-83
2021/06/30 07:43:05;;;;;;;2.20;1.77;;;18.50;98.50;;;;;;4904380;29;20032;-85
2021/06/30 07:45:30;;;;;;;2.22;1.80;;;18.70;98.30;;;;;;4907336;29;20486;-80
2021/06/30 07:47:56;;;;;;;2.10;1.73;;;18.80;98.50;;;;;;4917014;29;20107;-80
2021/06/30 07:50:22;;;;;;;4.07;2.05;;;19.10;98.80;;;;;;4917367;29;20103;-80
2021/06/30 07:52:52;;;;;;;3.72;1.35;;;19.30;98.60;;;;;;4900809;29;20047;-80
2021/06/30 07:55:22;;;;;;;3.90;1.90;;;19.50;98.90;;;;;;4917003;29;20031;-81
2021/06/30 07:57:47;;;;;;;2.28;1.60;;;19.70;98.60;;;;;;4901654;29;20032;-81
2021/06/30 08:00:13;;;;;;;2.13;1.70;;;19.80;98.30;;;;;;4915623;29;20177;-81
2021/06/30 08:02:39;;;;;;;2.60;1.45;;;19.80;98.00;;;;;;4916836;29;20024;-79
2021/06/30 08:05:10;;;;;;;2.47;1.60;;;19.70;97.30;;;;;;4916962;29;20034;-79
2021/06/30 08:07:36;;;;;;;1.70;1.60;;;19.50;97.10;;;;;;4916820;29;20024;-78
2021/06/30 08:10:07;;;;;;;2.33;1.73;;;19.50;97.60;;;;;;4917015;29;20066;-83
2021/06/30 08:12:33;;;;;;;2.67;1.70;;;19.60;98.00;;;;;;4899782;29;20043;-83
2021/06/30 08:14:59;;;;;;;3.10;1.58;;;19.60;97.70;;;;;;4916806;29;20369;-82
2021/06/30 08:17:25;;;;;;;1.70;1.60;;;19.60;97.80;;;;;;4916777;29;20028;-82
2021/06/30 08:19:50;;;;;;;2.40;1.40;;;19.70;97.80;;;;;;4899642;29;20468;-82
2021/06/30 08:22:16;;;;;;;2.33;1.70;;;19.70;97.90;;;;;;4922008;29;20039;-82
2021/06/30 08:24:44;;;;;;;1.75;1.38;;;19.80;98.00;;;;;;4899635;29;20115;-82
2021/06/30 08:27:11;;;;;;;3.83;1.83;;;19.90;98.20;;;;;;4900192;29;20119;-82
2021/06/30 08:29:37;;;;;;;2.63;1.70;;;20.00;98.00;;;;;;4916347;29;20088;-83
2021/06/30 08:32:04;;;;;;;3.17;1.70;;;20.00;97.70;;;;;;4903743;29;20047;-83
2021/06/30 08:34:30;;;;;;;2.63;1.58;;;19.90;97.40;;;;;;4916495;29;20103;-83
2021/06/30 08:37:08;;;;;;;1.63;1.40;;;19.80;97.40;;;;;;4890880;29;20059;-83
2021/06/30 08:39:34;;;;;;;1.70;1.38;;;19.90;97.70;;;;;;4916564;29;20075;-83
2021/06/30 08:42:01;;;;;;;1.30;1.20;;;19.80;97.60;;;;;;4916526;29;20074;-84
2021/06/30 08:44:27;;;;;;;1.42;1.33;;;19.80;97.90;;;;;;4899049;29;20012;-84
2021/06/30 08:46:57;;;;;;;1.50;1.40;;;20.00;98.30;;;;;;4916554;29;20480;-84
2021/06/30 08:49:26;;;;;;;3.60;1.63;;;20.10;98.10;;;;;;4916136;29;20033;-84
2021/06/30 08:51:53;;;;;;;1.98;1.40;;;20.20;97.90;;;;;;4899388;29;20442;-84
2021/06/30 08:54:20;;;;;;;1.40;1.30;;;20.20;98.00;;;;;;4899832;29;20032;-83
2021/06/30 08:56:48;;;;;;;1.58;1.40;;;20.20;97.80;;;;;;4916157;29;20029;-83
2021/06/30 08:59:14;;;;;;;1.55;1.45;;;20.20;97.70;;;;;;4916525;29;20488;-83
2021/06/30 09:01:39;;;;;;;1.48;1.25;;;20.00;97.10;;;;;;4916595;29;20028;-83
2021/06/30 09:04:07;;;;;;;1.60;1.15;;;19.80;97.20;;;;;;4916330;29;20536;-83
2021/06/30 09:06:33;;;;;;;1.50;1.40;;;19.70;97.50;;;;;;4916123;29;20083;-84
2021/06/30 09:09:02;;;;;;;1.85;1.60;;;19.80;98.00;;;;;;4900849;29;20036;-84
2021/06/30 09:11:30;;;;;;;1.50;1.40;;;19.90;98.10;;;;;;4916341;29;20087;-83
2021/06/30 09:14:23;;;;;;;1.40;1.30;;;20.00;98.20;;;;;;4915943;29;20032;-84
2021/06/30 09:16:57;;;;;;;2.47;1.10;;;20.20;98.70;;;;;;4898922;29;20103;-84
2021/06/30 09:20:02;;;;;;;1.30;1.20;;;20.30;98.30;;;;;;4916062;29;20992;-84
2021/06/30 09:22:39;;;;;;;1.08;0.98;;;20.30;98.10;;;;;;4915897;29;20051;-83
2021/06/30 09:25:05;;;;;;;1.08;1.08;;;20.30;98.10;;;;;;4915852;29;20388;-84
2021/06/30 09:27:45;;;;;;;1.58;1.15;;;20.20;97.60;;;;;;4899333;29;20376;-84
2021/06/30 09:30:13;;;;;;;2.08;1.05;;;20.20;97.90;;;;;;4900177;29;20047;-83
2021/06/30 09:33:05;;;;;;;2.05;1.10;;;20.30;98.20;;;;;;4915801;29;20500;-84
2021/06/30 09:35:35;;;;;;;3.10;1.30;;;20.40;98.20;;;;;;4914980;29;20044;-83
2021/06/30 09:38:28;;;;;;;1.35;1.25;;;20.50;98.60;;;;;;4915894;29;20372;-84
2021/06/30 09:40:54;;;;;;;1.63;1.08;;;20.80;98.80;;;;;;4895781;29;20119;-84
2021/06/30 09:43:32;;;;;;;0.90;0.90;;;21.00;98.60;;;;;;4899138;29;20451;-84
2021/06/30 09:46:27;;;;;;;1.40;1.30;;;21.10;98.10;;;;;;4915518;29;20024;-83
2021/06/30 09:48:55;;;;;;;1.42;1.33;;;21.00;97.90;;;;;;4898889;29;20473;-83
2021/06/30 09:51:21;;;;;;;0.93;0.93;;;21.00;98.00;;;;;;4900449;29;20036;-83
2021/06/30 09:53:47;;;;;;;1.20;1.10;;;20.90;97.70;;;;;;4915873;29;20127;-83
2021/06/30 09:56:34;;;;;;;1.00;1.00;;;20.90;97.90;;;;;;4899018;29;20119;-82
2021/06/30 09:59:21;;;;;;;1.85;0.95;;;20.90;98.10;;;;;;4916593;29;20031;-83
2021/06/30 10:02:01;;;;;;;1.30;1.20;;;21.20;99.00;;;;;;4903855;29;20456;-83
2021/06/30 10:04:38;;;;;;;1.10;1.00;;;21.80;99.90;;;;;;4899459;29;20024;-81
2021/06/30 10:07:16;;;;;;;0.90;0.90;;;22.10;99.90;;;;;;4913741;29;20373;-83
2021/06/30 10:09:47;;;;;;;1.15;0.88;;;22.30;99.80;;;;;;4919372;29;20115;-83
2021/06/30 10:12:16;;;;;;;0.90;0.90;;;22.30;98.70;;;;;;4902238;29;20036;-82
2021/06/30 10:14:44;;;;;;;1.15;1.05;;;22.00;97.20;;;;;;4902823;29;20031;-82
2021/06/30 10:17:11;;;;;;;0.82;0.82;;;21.70;97.20;;;;;;4919135;29;20039;-83
2021/06/30 10:19:47;;;;;;;0.90;0.90;;;21.40;97.30;;;;;;4919531;29;20028;-83
2021/06/30 10:22:14;;;;;;;0.95;0.80;;;21.20;97.50;;;;;;4925360;29;20052;-85
2021/06/30 10:24:41;;;;;;;0.95;0.95;;;21.20;98.20;;;;;;4921884;29;20063;-83
2021/06/30 10:27:08;;;;;;;0.60;0.60;;;21.30;98.80;;;;;;4919463;29;20020;-85
2021/06/30 10:29:38;;;;;;;0.77;0.77;;;21.40;99.00;;;;;;4919998;29;20056;-82
2021/06/30 10:35:59;;;;;;;1.23;0.85;;;22.10;99.90;;;;;;4919090;29;20058;-82
2021/06/30 10:41:58;;;;;;;1.40;0.88;;;22.40;98.90;;;;;;4860438;29;20030;-82
2021/06/30 10:44:52;;;;;;;1.85;1.05;;;22.30;98.60;;;;;;4845397;29;20391;-82
2021/06/30 10:51:34;;;;;;;0.80;0.80;;;22.30;99.40;;;;;;4914713;29;20131;-83
2021/06/30 11:27:34;;;;;;;1.05;0.93;;;22.60;98.70;;;;;;4771698;29;20035;-85
2021/06/30 11:43:54;;;;;;;0.85;0.85;;;22.40;98.10;;;;;;4748109;30;20381;-85
2021/06/30 11:47:06;;;;;;;0.80;0.80;;;22.40;98.80;;;;;;4765467;30;20389;-85
2021/06/30 11:52:59;;;;;;;0.60;0.60;;;22.30;98.40;;;;;;4787424;29;20038;-85
2021/06/30 11:59:15;;;;;;;0.68;0.68;;;22.30;98.40;;;;;;4747467;30;20139;-87
2021/06/30 12:04:59;;;;;;;0.95;0.80;;;22.40;98.80;;;;;;4801964;29;20074;-84
2021/06/30 12:07:57;;;;;;;0.70;0.70;;;22.60;99.30;;;;;;4819202;29;20100;-86
2021/06/30 12:35:39;;;;;;;2.45;0.68;;;25.50;98.40;;;;;;5085408;24;20076;-85
2021/06/30 12:38:38;;;;;;;0.30;0.30;;;25.00;96.60;;;;;;4878825;29;20045;-86
2021/06/30 12:45:16;;;;;;;;;;;;;;;;;;;;;
2021/06/30 12:48:41;;;;;;;1.50;1.00;;;23.80;97.00;;;;;;4898647;29;20040;-87
2021/06/30 12:52:03;;;;;;;2.03;1.02;;;23.50;97.00;;;;;;4861288;29;20055;-86
2021/06/30 12:55:26;;;;;;;1.00;1.00;;;23.50;97.10;;;;;;4880830;29;20047;-87
2021/06/30 12:58:12;;;;;;;1.17;1.08;;;23.50;97.60;;;;;;4862774;29;20032;-87
2021/06/30 13:05:00;;;;;;;;;;;;;;;;;;;;;
2021/06/30 13:12:01;;;;;;;1.67;1.10;;;25.80;99.90;;;;;;4881947;29;20482;-84
2021/06/30 13:14:32;;;;;;;1.38;1.20;;;26.20;99.90;;;;;;4895037;29;20033;-84
2021/06/30 13:17:11;;;;;;;0.75;0.75;;;27.20;99.90;;;;;;4880811;29;20040;-85
2021/06/30 13:23:12;;;;;;;0.90;0.90;;;29.30;99.90;;;;;;4861583;29;20052;-86
2021/06/30 13:25:50;;;;;;;1.48;0.80;;;29.60;99.90;;;;;;4897327;29;20052;-86
2021/06/30 13:28:55;;;;;;;0.55;0.50;;;29.70;98.40;;;;;;4897243;29;20503;-86
2021/06/30 13:43:08;;;;;;;0.80;0.80;;;31.30;99.90;;;;;;4919333;29;20059;-86
2021/06/30 13:46:13;;;;;;;0.85;0.85;;;32.10;98.20;;;;;;4882380;29;20045;-87
2021/06/30 13:49:03;;;;;;;;;;;;;;;;;;;;;
2021/06/30 13:51:33;;;;;;;0.50;0.50;;;32.40;96.20;;;;;;4932225;29;20024;-88
2021/06/30 13:54:56;;;;;;;0.90;0.90;;;31.70;94.10;;;;;;4934175;29;20047;-86
2021/06/30 13:58:28;;;;;;;;;;;;;;;;;;;;;
2021/06/30 14:04:19;;;;;;;1.00;1.00;;;32.20;96.60;;;;;;4919337;29;20035;-87
2021/06/30 14:14:20;;;;;;;0.98;0.88;;;34.60;94.50;;;;;;4908830;29;20047;-88
2021/06/30 14:16:49;;;;;;;0.55;0.55;;;34.00;94.80;;;;;;4887686;29;20040;-88
2021/06/30 14:26:48;;;;;;;0.90;0.90;;;34.20;98.70;;;;;;4882343;29;20084;-87
2021/06/30 14:29:13;;;;;;;0.95;0.65;;;34.80;96.60;;;;;;4879776;29;20068;-87
2021/06/30 14:39:41;;;;;;;0.60;0.60;;;31.70;92.30;;;;;;4886755;29;20105;-88
2021/06/30 14:46:19;;;;;;;1.95;0.80;;;31.20;96.40;;;;;;4886011;29;20480;-87
2021/06/30 14:49:17;;;;;;;1.10;1.00;;;31.40;96.10;;;;;;4899611;29;20064;-87
2021/06/30 14:51:55;;;;;;;0.60;0.60;;;30.50;92.20;;;;;;4900028;29;20064;-87
2021/06/30 14:54:24;;;;;;;0.77;0.77;;;29.50;91.50;;;;;;4918524;29;20062;-87
2021/06/30 14:56:56;;;;;;;1.55;0.50;;;28.70;93.90;;;;;;4933074;29;20058;-87
2021/06/30 14:59:22;;;;;;;0.77;0.77;;;29.10;96.80;;;;;;4918853;29;20028;-87
2021/06/30 15:01:54;;;;;;;1.05;0.95;;;29.20;94.90;;;;;;4901322;29;20020;-86
2021/06/30 15:04:20;;;;;;;0.77;0.77;;;29.10;95.50;;;;;;4902067;29;20032;-87
2021/06/30 15:06:45;;;;;;;13.57;1.23;;;29.70;97.20;;;;;;4918462;29;20410;-87
2021/06/30 15:09:11;;;;;;;0.70;0.70;;;30.60;99.40;;;;;;4901350;29;20032;-87
2021/06/30 15:11:42;;;;;;;1.05;1.00;;;31.30;98.10;;;;;;4918550;29;20025;-88
2021/06/30 15:14:18;;;;;;;1.60;0.95;;;32.10;99.90;;;;;;4901095;29;20366;-88
2021/06/30 15:16:44;;;;;;;1.40;1.23;;;34.60;99.90;;;;;;4918047;29;20052;-87
2021/06/30 15:19:10;;;;;;;0.80;0.80;;;36.20;99.90;;;;;;4917050;29;20063;-88
2021/06/30 15:21:37;;;;;;;0.75;0.75;;;37.10;99.90;;;;;;4916921;29;20437;-88
2021/06/30 15:24:06;;;;;;;0.70;0.70;;;38.30;99.90;;;;;;4918440;29;20461;-88
2021/06/30 15:26:36;;;;;;;0.70;0.70;;;39.20;97.80;;;;;;4915608;29;20495;-88
2021/06/30 15:29:03;;;;;;;0.77;0.77;;;39.60;95.60;;;;;;4917090;29;20116;-88
2021/06/30 15:31:30;;;;;;;0.50;0.50;;;40.10;96.60;;;;;;4918029;29;20024;-89
2021/06/30 15:34:00;;;;;;;0.93;0.80;;;40.40;95.10;;;;;;4918443;29;20028;-89
2021/06/30 15:36:27;;;;;;;0.98;0.80;;;40.30;94.00;;;;;;4921197;29;20035;-90
2021/06/30 15:38:52;;;;;;;1.38;1.10;;;40.30;93.50;;;;;;4927904;29;20051;-89
2021/06/30 15:41:19;;;;;;;1.38;0.82;;;40.40;94.80;;;;;;4909439;29;20050;-88
2021/06/30 15:43:45;;;;;;;0.70;0.70;;;40.60;93.00;;;;;;4926236;29;20022;-87
2021/06/30 15:46:12;;;;;;;1.10;1.00;;;40.30;91.10;;;;;;4925776;29;20098;-88
2021/06/30 15:48:38;;;;;;;0.90;0.90;;;39.80;90.50;;;;;;4904647;29;20523;-88
2021/06/30 15:51:05;;;;;;;1.05;1.00;;;39.70;92.00;;;;;;4936286;29;20036;-88
2021/06/30 15:53:30;;;;;;;1.33;1.23;;;39.70;92.40;;;;;;4928431;29;20139;-89
2021/06/30 15:55:56;;;;;;;1.00;1.00;;;39.90;94.20;;;;;;4938358;29;20061;-88
2021/06/30 15:58:25;;;;;;;1.30;1.20;;;40.90;95.00;;;;;;4923701;29;20035;-87
2021/06/30 16:00:51;;;;;;;0.63;0.57;;;41.20;94.00;;;;;;4907925;29;20024;-87
2021/06/30 16:03:18;;;;;;;1.23;1.10;;;40.50;83.00;;;;;;4906480;29;20388;-86
2021/06/30 16:05:44;;;;;;;2.38;1.17;;;38.20;83.40;;;;;;4923943;29;20038;-87
2021/06/30 16:08:11;;;;;;;0.63;0.63;;;37.50;90.30;;;;;;4923281;29;21057;-87
2021/06/30 16:10:37;;;;;;;1.10;0.60;;;38.20;94.60;;;;;;4924138;29;20028;-86
2021/06/30 16:13:05;;;;;;;1.42;1.00;;;39.10;91.90;;;;;;4920449;29;20115;-87
2021/06/30 16:15:32;;;;;;;2.00;0.80;;;38.80;92.10;;;;;;4924697;29;20020;-87
2021/06/30 16:17:58;;;;;;;0.60;0.60;;;39.00;93.70;;;;;;4906917;29;20020;-87